x

West Bermuda - 240 Nm West Of Bermuda (41048) Wave Buoy

1:50pm - Mon 26th Jan 2015 All times are UTC.

  • Sig Wave height 6.6ft
  • Swell Direction
  • Peak Period 9s
  • Average Period 6s
  • Wind
    18mph, 22mph gusts
  • Sea Temp 72°f
  • Air Temp 69°f
  • Sea Pressure 1011.3mb

More Historic Weather Station data

Upgrade to MSW Pro to gain access to the past 30 days of data for over 8000 Wavebouys and Weather Stations around the globe.

Join Pro

Comparision Forecast

View Surf forecast
   
Mon 01/26 1:50pm 6.5ft 9s 6s 18 22 mph 1011.3mb 72f 69f
12:50pm 6.5ft 9s 6s 16 18 mph 1011.8mb 72f 69f
11:50am 7ft 9s 7s 18 20 mph 1012.1mb 72f 69f
10:50am 6.5ft 10s 7s 18 20 mph 1012.2mb 72f 69f
9:50am 7ft 9s 7s 16 20 mph 1012.3mb 72f 68f
8:50am 8ft 10s 7s 11 16 mph 1012.9mb 72f 68f
7:50am 8ft 10s 7s 11 16 mph 1014mb 72f 68f
6:50am 9ft 10s 7s 9 13 mph 1014.4mb 72f 67f
5:50am 8ft 10s 7s 11 16 mph 1014.3mb 72f 67f
4:50am 9ft 10s 7s 9 13 mph 1014.7mb 72f 67f
3:50am 9ft 10s 7s 11 16 mph 1015.1mb 72f 67f
2:50am 9ft 10s 7s 7 11 mph 1014.7mb 72f 66f
1:50am 10.5ft 10s 8s 9 13 mph 1014.8mb 71f 67f
12:50am 9ft 10s 7s 11 16 mph 1014.7mb 71f 67f
Sun 01/25 11:50pm 10.5ft 10s 7s 9 13 mph 1014.8mb 71f 66f
10:50pm 11ft 10s 8s 9 13 mph 1014.4mb 71f 66f
9:50pm 11ft 10s 8s 9 11 mph 1014mb 71f 66f
8:50pm 11.5ft 11s 8s 16 18 mph 1013.7mb 71f 66f
7:50pm 11.5ft 11s 7s 16 20 mph 1013.1mb 71f 66f
6:50pm 12ft 11s 7s 20 25 mph 1012.9mb 71f 66f
5:50pm 12.5ft 11s 8s 20 25 mph 1013.2mb 71f 66f
4:50pm 14ft 11s 8s 20 25 mph 1013.5mb 71f 66f
3:50pm 12ft 11s 7s 18 22 mph 1013.5mb 71f 66f
2:50pm 12ft 9s 8s 16 20 mph 1013.2mb 71f 66f
1:50pm 13.5ft 9s 8s 18 22 mph 1012.4mb 71f 67f
12:50pm 13.5ft 10s 8s 20 27 mph 1011.7mb 71f 67f
11:50am 13.5ft 10s 8s 22 29 mph 1011mb 72f 66f
10:50am 15ft 10s 8s 22 31 mph 1010.2mb 72f 67f
9:50am 13ft 8s 7s 25 31 mph 1008.9mb 72f 67f
8:50am 13ft 9s 7s 29 38 mph 1007.9mb 72f 68f
7:50am 12.5ft 9s 7s 27 31 mph 1007.6mb 72f 68f
6:50am 12ft 9s 7s 29 34 mph 1006.6mb 72f 68f
5:50am 12ft 9s 7s 29 36 mph 1006.3mb 72f 69f
4:50am 13ft 9s 7s 29 36 mph 1005.5mb 72f 70f
3:50am 13ft 8s 7s 27 36 mph 1005mb 72f 70f
2:50am 14ft 9s 7s 27 34 mph 1004.8mb 72f 69f
1:50am 15.5ft 8s 7s 36 45 mph 1002.6mb 72f 73f
12:50am 13ft 8s 7s 31 38 mph 1003.8mb 72f 74f
Sat 01/24 11:50pm 13.5ft 8s 7s 34 43 mph 1004.5mb 72f 74f
10:50pm 14ft 8s 7s 34 40 mph 1004.7mb 72f 74f
9:50pm 13ft 8s 7s 34 43 mph 1005.7mb 72f 74f
8:50pm 13ft 8s 7s 31 38 mph 1006.3mb 72f 73f
7:50pm 12.5ft 8s 6s 31 40 mph 1006.3mb 72f 73f
6:50pm 11ft 7s 6s 36 45 mph 1005.7mb 72f 73f
5:50pm 9.5ft 7s 6s 31 40 mph 1007mb 72f 72f
4:50pm 9ft 7s 6s 34 43 mph 1009.4mb 72f 72f
3:50pm 7ft 6s 6s 31 38 mph 1011.2mb 71f 71f
2:50pm 7ft 6s 5s 29 36 mph 1012.5mb 71f 71f
1:50pm 6ft 6s 5s 27 34 mph 1013.4mb 71f 70f
12:50pm 7ft 10s 6s 27 31 mph 1014mb 71f 70f
11:50am 5.5ft 10s 5s 25 31 mph 1015mb 71f 69f
10:50am 6.5ft 10s 6s 25 29 mph 1015.5mb 72f 69f
9:50am 6ft 10s 6s 22 29 mph 1015.8mb 72f 68f
8:50am 5.5ft 9s 6s 22 27 mph 1016.3mb 72f 67f
7:50am 6ft 10s 7s 20 25 mph 1017.7mb 72f 67f
6:50am 6ft 10s 7s 16 20 mph 1018.4mb 72f 66f
5:50am 6ft 9s 7s 13 16 mph 1019.2mb 72f 66f
4:50am 6ft 8s 7s 11 16 mph 1020mb 72f 66f
3:50am 6ft 10s 7s 9 11 mph 1020.9mb 72f 65f
2:50am 6ft 9s 7s 7 11 mph 1022.1mb 72f 65f
1:50am 6ft 10s 7s 4 9 mph 1022.4mb 72f 65f
12:50am 6ft 9s 7s 7 9 mph 1022.3mb 72f 65f
Fri 01/23 11:50pm 6ft 9s 7s 4 7 mph 1022.2mb 72f 64f
10:50pm 6ft 9s 7s 7 11 mph 1022.1mb 72f 64f
9:50pm 6ft 8s 7s 4 9 mph 1021.8mb 72f 64f
8:50pm 4.5ft 9s 6s 7 9 mph 1022mb 72f 65f
7:50pm 5ft 9s 6s 9 11 mph 1021.9mb 72f 64f
6:50pm 5ft 8s 6s 7 9 mph 1022.5mb 72f 64f
5:50pm 5ft 8s 6s 11 16 mph 1023.1mb 72f 64f
4:50pm 5ft 8s 6s 11 16 mph 1023.9mb 72f 64f
3:50pm 5ft 7s 6s 13 16 mph 1024.3mb 72f 64f
2:50pm 4.5ft 9s 5s 13 16 mph 1024.8mb 72f 65f
1:50pm 5ft 8s 6s 16 22 mph 1024.9mb 71f 64f
12:50pm 5ft 8s 6s 11 16 mph 1024.2mb 71f 64f
11:50am 5ft 8s 6s 16 20 mph 1023.6mb 71f 64f
10:50am 5ft 8s 6s 13 18 mph 1023.1mb 71f 64f
9:50am 6ft 9s 6s 13 18 mph 1022.4mb 71f 64f
8:50am 5.5ft 8s 6s 13 18 mph 1022.2mb 71f 64f
7:50am 5ft 8s 6s 13 18 mph 1022.5mb 71f 64f
6:50am 5ft 9s 6s 16 20 mph 1022.5mb 71f 64f
5:50am 5ft 9s 5s 13 18 mph 1022.4mb 72f 65f
4:50am 4.5ft 6s 5s 16 18 mph 1022.5mb 72f 65f
3:50am 4.5ft 9s 5s 16 18 mph 1022.7mb 72f 66f
2:50am 4.5ft 10s 5s 18 22 mph 1022.5mb 72f 66f
1:50am 4.5ft 10s 5s 16 18 mph 1022mb 72f 67f
12:50am 4.5ft 7s 5s 16 18 mph 1022.2mb 72f 67f
Thu 01/22 11:50pm 4.5ft 6s 5s 16 18 mph 1022mb 72f 67f
10:50pm 4.5ft 7s 5s 13 18 mph 1021.8mb 72f 68f
9:50pm 4.5ft 9s 5s 13 18 mph 1021.3mb 72f 68f
8:50pm 4ft 10s 5s 16 20 mph 1020.8mb 72f 69f
7:50pm 4.5ft 7s 5s 16 18 mph 1020.5mb 72f 69f
6:50pm 4ft 7s 5s 16 20 mph 1020.1mb 72f 69f
5:50pm 4.5ft 9s 6s 16 18 mph 1020.1mb 72f 69f
4:50pm 4ft 7s 5s 11 13 mph 1020.3mb 72f 69f
3:50pm 4.5ft 9s 6s 13 18 mph 1020.9mb 72f 69f